Latest Weather Observations for Narrandera Airport

IDN60801

Issued at 11:05 pm EDT Thursday 30 October 2014 (issued every 30 minutes, with the page automatically refreshed every 10 minutes)

About weather observations | Map of weather stations | Latest weather observations for NSW | Other Formats
Station Details ID: 074148 Name: NARRANDERA AIRPORT AWS Lat: -34.70 Lon: 146.51 Height: 145.0 m
Data from the previous 72 hours. | See also: Recent months for locations in New South Wales
Date/Time
EDT
Temp
°C
App
Temp
°C
Dew
Point
Rel
Hum
%
Delta-T
°C
Wind Press
QNH
hPa
Press
MSL
hPa
Rain
since 9 am
mm
Dir
 
Spd
km/h
Gust
km/h
Spd
kts
Gust
kts
30/11:00pm 17.5 16.7 6.7 49 5.4 S 0 0 0 0 1012.7 1012.4 0.0
30/10:30pm 17.9 16.7 4.5 41 6.4 SSE 0 0 0 0 1012.6 1012.3 0.0
30/10:00pm 18.0 16.6 3.5 38 6.8 CALM 0 0 0 0 1012.5 1012.2 0.0
30/09:30pm 19.4 17.9 3.2 34 7.7 SSE 0 0 0 0 1012.4 1012.1 0.0
30/09:00pm 20.7 19.2 3.0 31 8.4 CALM 0 0 0 0 1012.0 1011.8 0.0
30/08:30pm 23.4 21.8 2.3 25 10.1 CALM 0 0 0 0 1011.8 1011.6 0.0
30/08:00pm 26.1 23.3 2.1 21 11.7 SW 6 7 3 4 1011.7 1011.5 0.0
30/07:30pm 28.8 26.8 2.1 18 13.2 WSW 2 7 1 4 1011.5 1011.3 0.0
30/07:00pm 29.9 24.5 1.4 16 14.0 W 19 30 10 16 1011.3 1011.1 0.0
30/06:30pm 30.9 25.9 1.3 15 14.6 W 17 28 9 15 1011.2 1011.0 0.0
30/06:00pm 31.2 26.1 0.6 14 15.0 SW 17 22 9 12 1011.2 1011.0 0.0
30/05:30pm 31.8 25.0 1.0 14 15.2 W 26 37 14 20 1011.1 1010.9 0.0
30/05:00pm 31.7 25.7 1.0 14 15.2 NW 22 28 12 15 1011.2 1011.0 0.0
30/04:30pm 32.0 27.5 2.1 15 15.1 WSW 15 22 8 12 1011.5 1011.3 0.0
30/04:00pm 31.4 25.9 0.7 14 15.1 W 19 28 10 15 1011.7 1011.5 0.0
30/03:30pm 31.2 25.1 0.6 14 15.0 W 22 35 12 19 1012.0 1011.8 0.0
30/03:00pm 31.6 26.1 1.8 15 14.9 W 20 30 11 16 1012.4 1012.1 0.0
30/02:30pm 31.1 26.2 2.3 16 14.5 WSW 17 26 9 14 1012.9 1012.6 0.0
30/02:00pm 30.4 25.0 2.6 17 14.0 W 20 33 11 18 1013.3 1013.0 0.0
30/01:30pm 30.3 24.8 4.1 19 13.5 W 22 30 12 16 1013.7 1013.4 0.0
30/01:00pm 29.1 23.1 3.1 19 13.1 WNW 24 35 13 19 1014.1 1013.8 0.0
30/12:30pm 29.8 24.8 3.7 19 13.3 WNW 19 30 10 16 1014.4 1014.1 0.0
30/12:00pm 28.3 23.4 3.9 21 12.4 W 19 33 10 18 1014.9 1014.6 0.0
30/11:30am 27.8 24.8 4.2 22 12.0 NNW 9 20 5 11 1015.2 1014.9 0.0
30/11:00am 26.7 22.1 3.9 23 11.5 WNW 17 30 9 16 1015.4 1015.1 0.0
30/10:30am 26.9 22.4 4.0 23 11.6 WNW 17 24 9 13 1015.5 1015.2 0.0
30/10:00am 26.3 22.6 4.7 25 11.0 NNW 13 19 7 10 1015.6 1015.3 0.0
30/09:30am 24.8 21.5 4.5 27 10.2 NNW 11 15 6 8 1015.7 1015.4 0.0
30/09:00am 22.9 21.2 5.8 33 8.7 N 4 9 2 5 1016.0 1015.7 0.0
30/08:30am 19.8 18.8 5.5 39 7.1 CALM 0 0 0 0 1016.1 1015.8 0.0
30/08:00am 16.8 16.0 6.3 50 5.2 CALM 0 0 0 0 1015.8 1015.5 0.0
30/07:30am 13.1 12.2 6.2 63 3.3 CALM 0 0 0 0 1015.5 1015.2 0.0
30/07:00am 12.5 11.6 6.1 65 3.0 ENE 0 0 0 0 1015.2 1014.9 0.0
30/06:30am 11.2 10.2 5.7 69 2.6 CALM 0 0 0 0 1014.9 1014.6 0.0
30/06:00am 10.5 9.4 5.3 70 2.4 CALM 0 0 0 0 1015.0 1014.7 0.0
30/05:30am 10.3 9.1 4.5 67 2.6 CALM 0 0 0 0 1014.9 1014.6 0.0
30/05:00am 10.6 9.3 4.3 65 2.8 CALM 0 0 0 0 1014.9 1014.6 0.0
30/04:30am 10.7 9.5 4.6 66 2.8 CALM 0 0 0 0 1014.8 1014.5 0.0
30/04:00am 10.5 9.4 5.3 70 2.4 CALM 0 0 0 0 1014.9 1014.6 0.0
30/03:30am 9.8 8.4 3.8 66 2.7 CALM 0 0 0 0 1014.8 1014.5 0.0
30/03:00am 10.1 8.8 4.0 66 2.7 CALM 0 0 0 0 1015.0 1014.7 0.0
30/02:30am 10.3 8.9 3.8 64 2.9 CALM 0 0 0 0 1015.1 1014.8 0.0
30/02:00am 10.4 9.1 4.3 66 2.7 CALM 0 0 0 0 1015.2 1014.9 0.0
30/01:30am 10.6 9.3 3.9 63 3.0 CALM 0 0 0 0 1015.5 1015.2 0.0
30/01:00am 11.5 10.3 4.7 63 3.1 CALM 0 0 0 0 1015.6 1015.3 0.0
30/12:30am 11.7 10.6 4.9 63 3.1 CALM 0 0 0 0 1015.8 1015.5 0.0
30/12:00am 12.3 11.0 4.0 57 3.8 ESE 0 0 0 0 1016.0 1015.7 0.0
 
Date/Time
EDT
Temp
°C
App
Temp
°C
Dew
Point
Rel
Hum
%
Delta-T
°C
Wind Press
QNH
hPa
Press
MSL
hPa
Rain
since 9 am
mm
Dir
 
Spd
km/h
Gust
km/h
Spd
kts
Gust
kts
29/11:30pm 12.6 11.4 4.6 58 3.7 CALM 0 0 0 0 1016.2 1015.9 0.0
29/11:00pm 13.2 11.9 4.1 54 4.2 CALM 0 0 0 0 1016.2 1015.9 0.0
29/10:30pm 14.2 12.9 4.2 51 4.6 CALM 0 0 0 0 1016.2 1015.9 0.0
29/10:00pm 15.3 14.2 4.9 50 4.9 CALM 0 0 0 0 1016.1 1015.8 0.0
29/09:30pm 17.4 16.7 6.9 50 5.3 CALM 0 0 0 0 1016.0 1015.7 0.0
29/09:00pm 18.2 17.0 4.4 40 6.6 CALM 0 0 0 0 1015.9 1015.6 0.0
29/08:30pm 19.7 17.5 3.4 34 7.7 SW 4 7 2 4 1015.8 1015.5 0.0
29/08:00pm 22.3 19.7 3.4 29 9.1 WSW 6 9 3 5 1015.5 1015.2 0.0
29/07:30pm 23.7 20.6 3.6 27 9.9 WSW 9 11 5 6 1015.3 1015.0 0.0
29/07:00pm 25.2 21.8 3.8 25 10.6 WSW 11 20 6 11 1015.0 1014.7 0.0
29/06:30pm 25.7 21.8 3.6 24 11.0 W 13 19 7 10 1015.0 1014.7 0.0
29/06:00pm 25.6 21.7 3.5 24 11.0 WSW 13 20 7 11 1014.9 1014.6 0.0
29/05:30pm 26.1 21.9 4.0 24 11.1 WSW 15 22 8 12 1015.0 1014.7 0.0
29/05:00pm 26.1 21.6 4.0 24 11.1 W 17 22 9 12 1015.0 1014.7 0.0
29/04:30pm 26.1 21.9 4.0 24 11.1 WSW 15 20 8 11 1015.2 1014.9 0.0
29/04:00pm 25.4 21.2 4.0 25 10.7 SW 15 24 8 13 1015.6 1015.3 0.0
29/03:30pm 26.0 21.6 4.5 25 10.9 W 17 24 9 13 1015.9 1015.6 0.0
29/03:00pm 25.1 20.9 3.7 25 10.6 WSW 15 20 8 11 1016.3 1016.0 0.0
29/02:30pm 25.2 20.9 3.2 24 10.8 W 15 28 8 15 1016.7 1016.4 0.0
29/02:00pm 24.2 18.9 2.9 25 10.3 W 20 30 11 16 1017.2 1017.0 0.0
29/01:30pm 23.6 19.7 3.5 27 9.8 WNW 13 32 7 17 1017.6 1017.4 0.0
29/01:00pm 23.8 20.0 3.7 27 9.9 W 13 24 7 13 1017.8 1017.6 0.0
29/12:30pm 21.7 17.5 3.9 31 8.7 SW 15 22 8 12 1018.4 1018.2 0.0
29/12:00pm 21.6 17.5 4.2 32 8.5 SW 15 20 8 11 1018.9 1018.7 0.0
29/11:30am 20.8 16.8 4.8 35 7.9 WSW 15 24 8 13 1019.2 1019.0 0.0
29/11:00am 19.5 16.6 4.4 37 7.3 S 9 13 5 7 1019.7 1019.4 0.0
29/10:30am 19.2 16.4 5.3 40 6.8 W 9 19 5 10 1019.8 1019.5 0.0
29/10:00am 18.2 15.0 5.1 42 6.3 WSW 11 17 6 9 1020.0 1019.7 0.0
29/09:30am 17.4 14.7 5.4 45 5.8 SW 9 15 5 8 1020.0 1019.7 0.0
29/09:00am 16.7 14.4 5.9 49 5.3 S 7 15 4 8 1019.9 1019.6 0.0
29/08:30am 15.0 12.3 5.8 54 4.4 SSW 9 13 5 7 1019.9 1019.6 0.0
29/08:00am 13.4 10.9 6.5 63 3.3 SSW 9 13 5 7 1019.8 1019.5 0.0
29/07:30am 12.0 10.4 6.3 68 2.7 SSW 4 9 2 5 1019.8 1019.5 0.0
29/07:00am 10.8 8.8 6.4 74 2.1 W 6 7 3 4 1019.3 1019.1 0.0
29/06:30am 9.6 8.6 5.4 75 1.9 CALM 0 0 0 0 1018.9 1018.7 0.0
29/06:00am 10.0 9.0 5.6 74 2.0 CALM 0 0 0 0 1018.3 1018.1 0.0
29/05:30am 10.5 8.2 5.7 72 2.2 S 7 9 4 5 1017.8 1017.6 0.0
29/05:00am 10.8 8.0 5.1 68 2.6 SSW 9 11 5 6 1017.4 1017.2 0.0
29/04:30am 12.2 9.1 5.6 64 3.1 SW 11 15 6 8 1017.2 1017.0 0.0
29/04:00am 11.8 9.1 5.4 65 3.0 SW 9 13 5 7 1016.8 1016.6 0.0
29/03:30am 13.4 11.1 5.6 59 3.7 WSW 7 11 4 6 1016.7 1016.4 0.0
29/03:00am 13.8 11.1 5.4 57 4.0 SW 9 13 5 7 1016.6 1016.3 0.0
29/02:30am 14.6 12.3 5.7 55 4.3 WSW 7 11 4 6 1016.4 1016.1 0.0
29/02:00am 15.3 12.3 5.8 53 4.6 WSW 11 17 6 9 1016.3 1016.0 0.0
29/01:30am 15.8 13.2 6.0 52 4.8 WSW 9 15 5 8 1016.4 1016.1 0.0
29/01:00am 16.3 13.3 5.9 50 5.1 WSW 11 17 6 9 1016.6 1016.3 0.0
29/12:30am 17.0 13.6 5.9 48 5.4 WSW 13 19 7 10 1016.6 1016.3 0.0
29/12:00am 17.2 13.8 5.8 47 5.6 SW 13 19 7 10 1016.6 1016.3 0.0
 
Date/Time
EDT
Temp
°C
App
Temp
°C
Dew
Point
Rel
Hum
%
Delta-T
°C
Wind Press
QNH
hPa
Press
MSL
hPa
Rain
since 9 am
mm
Dir
 
Spd
km/h
Gust
km/h
Spd
kts
Gust
kts
28/11:30pm 17.5 14.1 6.1 47 5.6 WSW 13 20 7 11 1016.6 1016.3 0.0
28/11:00pm 17.2 14.5 5.8 47 5.6 WSW 9 13 5 7 1016.5 1016.2 0.0
28/10:30pm 16.9 14.6 5.5 47 5.5 W 7 9 4 5 1016.4 1016.1 0.0
28/10:00pm 17.9 15.6 5.5 44 6.1 WSW 7 9 4 5 1016.4 1016.1 0.0
28/09:30pm 18.7 16.5 5.2 41 6.6 SW 6 9 3 5 1016.2 1015.9 0.0
28/09:00pm 19.2 16.3 4.9 39 7.0 WSW 9 11 5 6 1015.9 1015.6 0.0
28/08:30pm 20.0 16.8 4.9 37 7.4 WSW 11 17 6 9 1015.6 1015.3 0.0
28/08:00pm 20.6 17.4 5.0 36 7.7 SW 11 17 6 9 1015.4 1015.1 0.0
28/07:30pm 21.0 16.6 5.0 35 7.9 SW 17 28 9 15 1015.0 1014.7 0.0
28/07:00pm 21.4 16.6 4.5 33 8.3 SW 19 32 10 17 1014.7 1014.4 0.0
28/06:30pm 22.8 17.8 4.8 31 9.0 WSW 20 35 11 19 1014.4 1014.1 0.0
28/06:00pm 23.1 17.4 5.1 31 9.0 WSW 24 37 13 20 1014.2 1013.9 0.0
28/05:31pm 22.9 16.4 4.9 31 9.0 WSW 28 46 15 25 1014.0 1013.7 0.0
28/05:30pm 22.4 15.5 4.5 31 8.9 WSW 30 46 16 25 1014.1 1013.8 0.0
28/05:25pm 22.5 16.0 4.5 31 8.9 WSW 28 46 15 25 1014.1 1013.8 0.0
28/05:00pm 23.0 17.6 4.5 30 9.2 WSW 22 41 12 22 1014.1 1013.8 0.0
28/04:30pm 23.5 17.0 4.5 29 9.5 WSW 28 43 15 23 1013.9 1013.6 0.0
28/04:13pm 24.3 17.8 4.6 28 9.9 W 28 48 15 26 1014.0 1013.7 0.0
28/04:00pm 23.9 17.3 4.3 28 9.8 W 28 39 15 21 1014.1 1013.8 0.0
28/03:30pm 23.1 16.8 3.6 28 9.5 WSW 26 37 14 20 1014.2 1013.9 0.0
28/03:21pm 23.5 16.4 3.4 27 9.8 W 30 50 16 27 1014.2 1013.9 0.0
28/03:00pm 22.8 15.7 3.4 28 9.4 W 30 43 16 23 1014.6 1014.3 0.0
28/02:30pm 23.3 15.9 3.8 28 9.6 W 32 46 17 25 1015.0 1014.7 0.0
28/02:00pm 22.3 16.4 3.9 30 9.0 W 24 35 13 19 1015.3 1015.0 0.0
28/01:30pm 22.3 16.1 4.4 31 8.8 W 26 37 14 20 1015.6 1015.3 0.0
28/01:00pm 20.5 13.8 3.7 33 8.1 W 28 50 15 27 1015.8 1015.5 0.0
28/12:47pm 20.7 14.1 4.3 34 8.0 W 28 43 15 23 1015.9 1015.6 0.0
28/12:30pm 19.6 14.5 4.1 36 7.5 NW 20 24 11 13 1016.2 1015.9 0.0
28/12:00pm 19.3 13.5 4.3 37 7.2 WSW 24 33 13 18 1016.5 1016.2 0.0
28/11:30am 18.2 12.3 4.0 39 6.7 W 24 39 13 21 1016.9 1016.7 0.0
28/11:00am 17.9 12.4 4.1 40 6.5 WSW 22 35 12 19 1017.2 1017.0 0.0
28/10:30am 16.7 10.8 3.7 42 6.1 WSW 24 32 13 17 1017.3 1017.1 0.0
28/10:00am 15.7 10.6 4.1 46 5.4 WSW 20 37 11 20 1017.4 1017.2 0.0
28/09:30am 15.4 9.9 3.9 46 5.3 W 22 32 12 17 1017.6 1017.4 0.0
28/09:00am 14.7 10.1 3.8 48 5.0 WSW 17 24 9 13 1017.5 1017.3 0.0
28/08:30am 13.8 8.6 3.3 49 4.7 W 20 33 11 18 1017.3 1017.1 0.0
28/08:00am 12.6 7.8 2.7 51 4.4 WSW 17 28 9 15 1017.0 1016.8 0.0
28/07:30am 11.3 7.6 2.6 55 3.8 W 11 19 6 10 1016.3 1016.0 0.0
28/07:00am 10.5 6.8 2.4 57 3.5 WSW 11 20 6 11 1016.0 1015.7 0.0
28/06:30am 10.0 6.6 2.1 58 3.4 WSW 9 15 5 8 1015.4 1015.1 0.0
28/06:00am 9.9 6.6 2.3 59 3.2 W 9 17 5 9 1015.1 1014.8 0.0
28/05:30am 9.9 6.9 1.8 57 3.4 W 7 11 4 6 1014.7 1014.4 0.0
28/05:00am 10.9 6.8 2.2 55 3.7 WSW 13 17 7 9 1014.4 1014.1 0.0
28/04:30am 11.4 7.3 2.2 53 4.0 WSW 13 20 7 11 1014.3 1014.0 0.0
28/04:00am 11.6 7.8 1.8 51 4.2 WSW 11 19 6 10 1014.0 1013.7 0.0
28/03:30am 11.8 8.0 1.7 50 4.3 WSW 11 17 6 9 1013.9 1013.6 0.0
28/03:00am 12.5 8.3 1.5 47 4.7 WSW 13 17 7 9 1013.9 1013.6 0.0
28/02:30am 12.7 8.9 1.7 47 4.8 WSW 11 19 6 10 1013.9 1013.6 0.0
28/02:00am 13.3 9.8 1.3 44 5.2 WSW 9 15 5 8 1013.8 1013.5 0.0
28/01:30am 13.6 9.7 1.3 43 5.3 WSW 11 17 6 9 1014.3 1014.0 0.0
28/01:00am 14.0 10.5 1.3 42 5.5 WSW 9 13 5 7 1014.4 1014.1 0.0
28/12:30am 14.7 10.8 1.3 40 5.8 WSW 11 17 6 9 1014.4 1014.1 0.0
28/12:00am 15.1 11.5 0.9 38 6.2 WSW 9 13 5 7 1014.1 1013.8 0.0
 
Date/Time
EDT
Temp
°C
App
Temp
°C
Dew
Point
Rel
Hum
%
Delta-T
°C
Wind Press
QNH
hPa
Press
MSL
hPa
Rain
since 9 am
mm
Dir
 
Spd
km/h
Gust
km/h
Spd
kts
Gust
kts
27/11:30pm 15.7 11.4 1.1 37 6.4 WSW 13 17 7 9 1014.1 1013.8 0.0

Other Formats:

Comma delimited format used in spreadsheet applications
http://www.bom.gov.au/fwo/IDN60801/IDN60801.95706.axf

JavaScript Object Notation format (JSON) in row-major order
http://www.bom.gov.au/fwo/IDN60801/IDN60801.95706.json